sensor_id;sensor_type;location;lat;lon;timestamp;temperature;humidity
18694;DHT22;9477;51.414;10.362;2023-04-29T00:00:53;16.20;91.20
18694;DHT22;9477;51.414;10.362;2023-04-29T00:02:56;16.20;91.30
18694;DHT22;9477;51.414;10.362;2023-04-29T00:05:00;16.30;91.20
18694;DHT22;9477;51.414;10.362;2023-04-29T00:07:06;16.40;91.50
18694;DHT22;9477;51.414;10.362;2023-04-29T00:09:10;16.30;90.90
18694;DHT22;9477;51.414;10.362;2023-04-29T00:11:13;16.10;91.00
18694;DHT22;9477;51.414;10.362;2023-04-29T00:13:16;16.00;91.40
18694;DHT22;9477;51.414;10.362;2023-04-29T00:15:19;16.00;91.50
18694;DHT22;9477;51.414;10.362;2023-04-29T00:17:22;16.00;91.50
18694;DHT22;9477;51.414;10.362;2023-04-29T00:19:25;16.00;91.50
18694;DHT22;9477;51.414;10.362;2023-04-29T00:21:29;15.90;91.60
18694;DHT22;9477;51.414;10.362;2023-04-29T00:23:32;16.00;91.70
18694;DHT22;9477;51.414;10.362;2023-04-29T00:25:36;16.20;91.70
18694;DHT22;9477;51.414;10.362;2023-04-29T00:27:39;16.30;91.40
18694;DHT22;9477;51.414;10.362;2023-04-29T00:29:42;16.20;91.10
18694;DHT22;9477;51.414;10.362;2023-04-29T00:31:45;16.30;91.20
18694;DHT22;9477;51.414;10.362;2023-04-29T00:33:48;16.10;91.30
18694;DHT22;9477;51.414;10.362;2023-04-29T00:35:51;16.20;91.40
18694;DHT22;9477;51.414;10.362;2023-04-29T00:37:53;16.20;91.30
18694;DHT22;9477;51.414;10.362;2023-04-29T00:39:56;16.10;91.30
18694;DHT22;9477;51.414;10.362;2023-04-29T00:42:01;16.30;91.50
18694;DHT22;9477;51.414;10.362;2023-04-29T00:44:04;16.40;91.30
18694;DHT22;9477;51.414;10.362;2023-04-29T00:46:08;16.40;91.10
18694;DHT22;9477;51.414;10.362;2023-04-29T00:48:11;16.40;91.10
18694;DHT22;9477;51.414;10.362;2023-04-29T00:50:15;16.40;91.10
18694;DHT22;9477;51.414;10.362;2023-04-29T00:52:18;16.30;91.10
18694;DHT22;9477;51.414;10.362;2023-04-29T00:54:21;16.20;91.20
18694;DHT22;9477;51.414;10.362;2023-04-29T00:56:24;16.20;91.30
18694;DHT22;9477;51.414;10.362;2023-04-29T00:58:29;16.00;91.50
18694;DHT22;9477;51.414;10.362;2023-04-29T01:00:34;15.70;91.80
18694;DHT22;9477;51.414;10.362;2023-04-29T01:02:37;15.90;92.10
18694;DHT22;9477;51.414;10.362;2023-04-29T01:04:47;15.90;92.10
18694;DHT22;9477;51.414;10.362;2023-04-29T01:07:00;16.10;92.10
18694;DHT22;9477;51.414;10.362;2023-04-29T01:09:21;16.10;91.80
18694;DHT22;9477;51.414;10.362;2023-04-29T01:11:33;16.20;91.90
18694;DHT22;9477;51.414;10.362;2023-04-29T01:13:42;16.30;91.70
18694;DHT22;9477;51.414;10.362;2023-04-29T01:15:48;16.30;91.70
18694;DHT22;9477;51.414;10.362;2023-04-29T01:17:59;16.10;91.70
18694;DHT22;9477;51.414;10.362;2023-04-29T01:20:06;16.20;91.90
18694;DHT22;9477;51.414;10.362;2023-04-29T01:22:10;16.20;91.90
18694;DHT22;9477;51.414;10.362;2023-04-29T01:24:16;16.20;91.90
18694;DHT22;9477;51.414;10.362;2023-04-29T01:26:19;16.30;92.00
18694;DHT22;9477;51.414;10.362;2023-04-29T01:28:41;16.50;91.90
18694;DHT22;9477;51.414;10.362;2023-04-29T01:30:50;16.60;91.70
18694;DHT22;9477;51.414;10.362;2023-04-29T01:33:00;16.60;91.50
18694;DHT22;9477;51.414;10.362;2023-04-29T01:35:14;16.50;91.40
18694;DHT22;9477;51.414;10.362;2023-04-29T01:37:27;16.30;91.70
18694;DHT22;9477;51.414;10.362;2023-04-29T01:39:43;16.20;91.80
18694;DHT22;9477;51.414;10.362;2023-04-29T01:41:52;16.10;92.00
18694;DHT22;9477;51.414;10.362;2023-04-29T01:44:01;16.20;92.20
18694;DHT22;9477;51.414;10.362;2023-04-29T01:46:05;16.30;92.00
18694;DHT22;9477;51.414;10.362;2023-04-29T01:48:10;16.30;92.00
18694;DHT22;9477;51.414;10.362;2023-04-29T01:50:13;16.10;92.00
18694;DHT22;9477;51.414;10.362;2023-04-29T01:52:16;16.10;92.20
18694;DHT22;9477;51.414;10.362;2023-04-29T01:54:19;16.10;92.30
18694;DHT22;9477;51.414;10.362;2023-04-29T01:56:24;16.20;92.30
18694;DHT22;9477;51.414;10.362;2023-04-29T01:58:27;16.20;92.10
18694;DHT22;9477;51.414;10.362;2023-04-29T02:00:30;16.00;92.10
18694;DHT22;9477;51.414;10.362;2023-04-29T02:02:32;16.00;92.20
18694;DHT22;9477;51.414;10.362;2023-04-29T02:04:36;15.80;92.60
18694;DHT22;9477;51.414;10.362;2023-04-29T02:06:38;15.70;92.80
18694;DHT22;9477;51.414;10.362;2023-04-29T02:08:41;15.70;93.20
18694;DHT22;9477;51.414;10.362;2023-04-29T02:10:51;15.80;93.20
18694;DHT22;9477;51.414;10.362;2023-04-29T02:12:55;15.80;93.10
18694;DHT22;9477;51.414;10.362;2023-04-29T02:14:58;15.50;93.00
18694;DHT22;9477;51.414;10.362;2023-04-29T02:17:01;15.60;93.30
18694;DHT22;9477;51.414;10.362;2023-04-29T02:19:04;15.50;93.50
18694;DHT22;9477;51.414;10.362;2023-04-29T02:21:07;15.60;93.50
18694;DHT22;9477;51.414;10.362;2023-04-29T02:23:09;15.50;93.50
18694;DHT22;9477;51.414;10.362;2023-04-29T02:25:12;15.30;93.70
18694;DHT22;9477;51.414;10.362;2023-04-29T02:27:15;15.40;93.80
18694;DHT22;9477;51.414;10.362;2023-04-29T02:29:20;15.40;93.80
18694;DHT22;9477;51.414;10.362;2023-04-29T02:31:22;15.50;93.70
18694;DHT22;9477;51.414;10.362;2023-04-29T02:33:25;15.30;93.80
18694;DHT22;9477;51.414;10.362;2023-04-29T02:35:28;15.40;93.90
18694;DHT22;9477;51.414;10.362;2023-04-29T02:37:31;15.40;93.90
18694;DHT22;9477;51.414;10.362;2023-04-29T02:39:34;15.10;93.80
18694;DHT22;9477;51.414;10.362;2023-04-29T02:41:37;15.30;93.80
18694;DHT22;9477;51.414;10.362;2023-04-29T02:43:39;15.30;94.00
18694;DHT22;9477;51.414;10.362;2023-04-29T02:45:43;15.20;94.00
18694;DHT22;9477;51.414;10.362;2023-04-29T02:47:47;15.50;94.00
18694;DHT22;9477;51.414;10.362;2023-04-29T02:49:50;15.20;94.10
18694;DHT22;9477;51.414;10.362;2023-04-29T02:51:53;15.20;94.10
18694;DHT22;9477;51.414;10.362;2023-04-29T02:53:56;15.20;94.10
18694;DHT22;9477;51.414;10.362;2023-04-29T02:55:59;15.00;94.00
18694;DHT22;9477;51.414;10.362;2023-04-29T02:58:01;15.00;94.30
18694;DHT22;9477;51.414;10.362;2023-04-29T03:00:06;14.60;94.40
18694;DHT22;9477;51.414;10.362;2023-04-29T03:02:10;14.80;94.60
18694;DHT22;9477;51.414;10.362;2023-04-29T03:04:13;15.00;94.50
18694;DHT22;9477;51.414;10.362;2023-04-29T03:06:16;15.10;94.30
18694;DHT22;9477;51.414;10.362;2023-04-29T03:08:19;14.90;94.20
18694;DHT22;9477;51.414;10.362;2023-04-29T03:10:22;15.00;94.30
18694;DHT22;9477;51.414;10.362;2023-04-29T03:12:25;15.00;94.40
18694;DHT22;9477;51.414;10.362;2023-04-29T03:14:28;14.80;94.20
18694;DHT22;9477;51.414;10.362;2023-04-29T03:16:31;15.10;94.50
18694;DHT22;9477;51.414;10.362;2023-04-29T03:18:35;15.00;94.40
18694;DHT22;9477;51.414;10.362;2023-04-29T03:20:38;15.10;94.40
18694;DHT22;9477;51.414;10.362;2023-04-29T03:22:41;15.20;94.30
18694;DHT22;9477;51.414;10.362;2023-04-29T03:24:43;15.40;94.30
18694;DHT22;9477;51.414;10.362;2023-04-29T03:26:46;15.30;94.10
18694;DHT22;9477;51.414;10.362;2023-04-29T03:28:49;15.40;94.00
18694;DHT22;9477;51.414;10.362;2023-04-29T03:30:52;15.50;94.00
18694;DHT22;9477;51.414;10.362;2023-04-29T03:32:55;15.60;93.70
18694;DHT22;9477;51.414;10.362;2023-04-29T03:34:59;15.30;93.50
18694;DHT22;9477;51.414;10.362;2023-04-29T03:37:02;15.30;93.80
18694;DHT22;9477;51.414;10.362;2023-04-29T03:39:05;15.60;94.00
18694;DHT22;9477;51.414;10.362;2023-04-29T03:41:08;15.70;93.80
18694;DHT22;9477;51.414;10.362;2023-04-29T03:43:10;15.60;93.40
18694;DHT22;9477;51.414;10.362;2023-04-29T03:45:14;15.30;93.30
18694;DHT22;9477;51.414;10.362;2023-04-29T03:47:18;15.40;93.40
18694;DHT22;9477;51.414;10.362;2023-04-29T03:49:20;15.20;93.40
18694;DHT22;9477;51.414;10.362;2023-04-29T03:51:25;14.80;93.50
18694;DHT22;9477;51.414;10.362;2023-04-29T03:53:28;15.00;94.00
18694;DHT22;9477;51.414;10.362;2023-04-29T03:55:31;15.20;94.10
18694;DHT22;9477;51.414;10.362;2023-04-29T03:57:34;15.30;93.80
18694;DHT22;9477;51.414;10.362;2023-04-29T03:59:37;15.20;93.40
18694;DHT22;9477;51.414;10.362;2023-04-29T04:01:40;15.20;93.60
18694;DHT22;9477;51.414;10.362;2023-04-29T04:03:43;15.00;93.60
18694;DHT22;9477;51.414;10.362;2023-04-29T04:05:46;15.10;93.70
18694;DHT22;9477;51.414;10.362;2023-04-29T04:07:50;15.20;93.80
18694;DHT22;9477;51.414;10.362;2023-04-29T04:09:53;15.10;93.90
18694;DHT22;9477;51.414;10.362;2023-04-29T04:11:56;14.90;94.40
18694;DHT22;9477;51.414;10.362;2023-04-29T04:13:59;14.90;94.40
18694;DHT22;9477;51.414;10.362;2023-04-29T04:16:02;14.60;94.40
18694;DHT22;9477;51.414;10.362;2023-04-29T04:18:05;14.40;94.90
18694;DHT22;9477;51.414;10.362;2023-04-29T04:20:09;14.40;95.20
18694;DHT22;9477;51.414;10.362;2023-04-29T04:22:12;14.70;95.20
18694;DHT22;9477;51.414;10.362;2023-04-29T04:24:16;14.60;95.10
18694;DHT22;9477;51.414;10.362;2023-04-29T04:26:18;14.30;95.10
18694;DHT22;9477;51.414;10.362;2023-04-29T04:28:22;14.30;95.30
18694;DHT22;9477;51.414;10.362;2023-04-29T04:30:25;14.20;95.50
18694;DHT22;9477;51.414;10.362;2023-04-29T04:32:27;14.10;95.50
18694;DHT22;9477;51.414;10.362;2023-04-29T04:34:30;14.30;95.20
18694;DHT22;9477;51.414;10.362;2023-04-29T04:36:33;13.80;95.10
18694;DHT22;9477;51.414;10.362;2023-04-29T04:38:36;14.00;95.50
18694;DHT22;9477;51.414;10.362;2023-04-29T04:40:41;14.10;95.70
18694;DHT22;9477;51.414;10.362;2023-04-29T04:42:44;13.80;95.50
18694;DHT22;9477;51.414;10.362;2023-04-29T04:44:47;13.80;95.50
18694;DHT22;9477;51.414;10.362;2023-04-29T04:46:49;13.60;95.40
18694;DHT22;9477;51.414;10.362;2023-04-29T04:48:52;13.60;95.40
18694;DHT22;9477;51.414;10.362;2023-04-29T04:50:55;13.80;95.80
18694;DHT22;9477;51.414;10.362;2023-04-29T04:52:58;13.80;96.00
18694;DHT22;9477;51.414;10.362;2023-04-29T04:55:01;13.60;95.70
18694;DHT22;9477;51.414;10.362;2023-04-29T04:57:05;13.80;96.10
18694;DHT22;9477;51.414;10.362;2023-04-29T04:59:08;13.80;96.10
18694;DHT22;9477;51.414;10.362;2023-04-29T05:01:11;14.00;96.00
18694;DHT22;9477;51.414;10.362;2023-04-29T05:03:14;13.90;95.70
18694;DHT22;9477;51.414;10.362;2023-04-29T05:05:17;13.50;95.50
18694;DHT22;9477;51.414;10.362;2023-04-29T05:07:20;13.80;95.60
18694;DHT22;9477;51.414;10.362;2023-04-29T05:09:23;13.80;95.50
18694;DHT22;9477;51.414;10.362;2023-04-29T05:11:27;13.70;95.60
18694;DHT22;9477;51.414;10.362;2023-04-29T05:13:32;13.80;95.60
18694;DHT22;9477;51.414;10.362;2023-04-29T05:15:34;13.90;95.40
18694;DHT22;9477;51.414;10.362;2023-04-29T05:17:37;13.80;95.50
18694;DHT22;9477;51.414;10.362;2023-04-29T05:19:40;13.80;95.50
18694;DHT22;9477;51.414;10.362;2023-04-29T05:21:43;13.90;95.60
18694;DHT22;9477;51.414;10.362;2023-04-29T05:23:46;14.10;95.60
18694;DHT22;9477;51.414;10.362;2023-04-29T05:25:49;13.80;95.30
18694;DHT22;9477;51.414;10.362;2023-04-29T05:27:51;14.00;95.40
18694;DHT22;9477;51.414;10.362;2023-04-29T05:29:56;14.00;95.40
18694;DHT22;9477;51.414;10.362;2023-04-29T05:31:59;14.00;95.40
18694;DHT22;9477;51.414;10.362;2023-04-29T05:34:02;13.90;95.20
18694;DHT22;9477;51.414;10.362;2023-04-29T05:36:05;13.70;95.50
18694;DHT22;9477;51.414;10.362;2023-04-29T05:38:08;13.90;95.70
18694;DHT22;9477;51.414;10.362;2023-04-29T05:40:11;13.40;95.60
18694;DHT22;9477;51.414;10.362;2023-04-29T05:42:14;13.80;96.00
18694;DHT22;9477;51.414;10.362;2023-04-29T05:44:17;14.00;95.80
18694;DHT22;9477;51.414;10.362;2023-04-29T05:46:21;14.40;95.50
18694;DHT22;9477;51.414;10.362;2023-04-29T05:48:24;14.20;94.80
18694;DHT22;9477;51.414;10.362;2023-04-29T05:50:27;14.40;94.90
18694;DHT22;9477;51.414;10.362;2023-04-29T05:52:29;14.40;94.80
18694;DHT22;9477;51.414;10.362;2023-04-29T05:54:32;14.20;94.50
18694;DHT22;9477;51.414;10.362;2023-04-29T05:56:35;14.10;94.70
18694;DHT22;9477;51.414;10.362;2023-04-29T05:58:38;14.10;94.60
18694;DHT22;9477;51.414;10.362;2023-04-29T06:00:41;13.90;94.70
18694;DHT22;9477;51.414;10.362;2023-04-29T06:02:45;13.80;95.00
18694;DHT22;9477;51.414;10.362;2023-04-29T06:04:59;13.90;95.20
18694;DHT22;9477;51.414;10.362;2023-04-29T06:07:03;13.80;95.20
18694;DHT22;9477;51.414;10.362;2023-04-29T06:09:06;13.80;95.20
18694;DHT22;9477;51.414;10.362;2023-04-29T06:11:17;13.60;95.10
18694;DHT22;9477;51.414;10.362;2023-04-29T06:13:19;13.70;95.50
18694;DHT22;9477;51.414;10.362;2023-04-29T06:15:22;13.80;95.60
18694;DHT22;9477;51.414;10.362;2023-04-29T06:17:25;13.90;95.50
18694;DHT22;9477;51.414;10.362;2023-04-29T06:19:31;14.20;95.60
18694;DHT22;9477;51.414;10.362;2023-04-29T06:21:34;14.00;95.20
18694;DHT22;9477;51.414;10.362;2023-04-29T06:23:37;14.20;95.40
18694;DHT22;9477;51.414;10.362;2023-04-29T06:25:40;14.10;95.10
18694;DHT22;9477;51.414;10.362;2023-04-29T06:27:42;13.80;95.10
18694;DHT22;9477;51.414;10.362;2023-04-29T06:29:45;14.10;95.50
18694;DHT22;9477;51.414;10.362;2023-04-29T06:31:48;14.00;95.30
18694;DHT22;9477;51.414;10.362;2023-04-29T06:33:51;13.60;95.40
18694;DHT22;9477;51.414;10.362;2023-04-29T06:35:55;13.80;95.80
18694;DHT22;9477;51.414;10.362;2023-04-29T06:37:58;13.60;95.90
18694;DHT22;9477;51.414;10.362;2023-04-29T06:40:01;13.10;95.90
18694;DHT22;9477;51.414;10.362;2023-04-29T06:42:03;13.30;96.40
18694;DHT22;9477;51.414;10.362;2023-04-29T06:44:06;13.20;96.50
18694;DHT22;9477;51.414;10.362;2023-04-29T06:46:09;13.30;96.70
18694;DHT22;9477;51.414;10.362;2023-04-29T06:48:12;13.70;96.30
18694;DHT22;9477;51.414;10.362;2023-04-29T06:50:15;14.00;96.30
18694;DHT22;9477;51.414;10.362;2023-04-29T06:52:20;13.90;95.80
18694;DHT22;9477;51.414;10.362;2023-04-29T06:54:22;14.00;95.80
18694;DHT22;9477;51.414;10.362;2023-04-29T06:56:26;14.00;95.40
18694;DHT22;9477;51.414;10.362;2023-04-29T06:58:29;13.70;95.40
18694;DHT22;9477;51.414;10.362;2023-04-29T07:00:32;13.50;96.00
18694;DHT22;9477;51.414;10.362;2023-04-29T07:02:34;14.10;96.00
18694;DHT22;9477;51.414;10.362;2023-04-29T07:04:39;14.10;95.70
18694;DHT22;9477;51.414;10.362;2023-04-29T07:06:42;14.10;95.00
18694;DHT22;9477;51.414;10.362;2023-04-29T07:08:49;14.00;95.00
18694;DHT22;9477;51.414;10.362;2023-04-29T07:10:54;13.90;95.20
18694;DHT22;9477;51.414;10.362;2023-04-29T07:13:00;13.60;95.30
18694;DHT22;9477;51.414;10.362;2023-04-29T07:15:04;13.50;95.20
18694;DHT22;9477;51.414;10.362;2023-04-29T07:17:07;13.40;95.10
18694;DHT22;9477;51.414;10.362;2023-04-29T07:19:13;13.70;95.30
18694;DHT22;9477;51.414;10.362;2023-04-29T07:21:15;13.80;95.20
18694;DHT22;9477;51.414;10.362;2023-04-29T07:23:18;13.90;95.00
18694;DHT22;9477;51.414;10.362;2023-04-29T07:25:22;14.00;95.00
18694;DHT22;9477;51.414;10.362;2023-04-29T07:27:25;13.90;94.80
18694;DHT22;9477;51.414;10.362;2023-04-29T07:29:29;13.60;94.80
18694;DHT22;9477;51.414;10.362;2023-04-29T07:31:31;13.70;95.10
18694;DHT22;9477;51.414;10.362;2023-04-29T07:33:38;14.00;95.30
18694;DHT22;9477;51.414;10.362;2023-04-29T07:35:41;13.80;94.60
18694;DHT22;9477;51.414;10.362;2023-04-29T07:37:45;13.90;94.80
18694;DHT22;9477;51.414;10.362;2023-04-29T07:39:48;13.50;94.70
18694;DHT22;9477;51.414;10.362;2023-04-29T07:41:53;13.70;95.00
18694;DHT22;9477;51.414;10.362;2023-04-29T07:43:55;13.70;95.00
18694;DHT22;9477;51.414;10.362;2023-04-29T07:45:58;14.00;94.80
18694;DHT22;9477;51.414;10.362;2023-04-29T07:48:01;14.10;94.60
18694;DHT22;9477;51.414;10.362;2023-04-29T07:50:04;14.20;94.60
18694;DHT22;9477;51.414;10.362;2023-04-29T07:52:07;14.10;93.80
18694;DHT22;9477;51.414;10.362;2023-04-29T07:54:10;13.70;93.80
18694;DHT22;9477;51.414;10.362;2023-04-29T07:56:13;14.10;94.20
18694;DHT22;9477;51.414;10.362;2023-04-29T07:58:18;14.10;93.80
18694;DHT22;9477;51.414;10.362;2023-04-29T08:00:21;13.90;93.80
18694;DHT22;9477;51.414;10.362;2023-04-29T08:02:24;14.10;93.90
18694;DHT22;9477;51.414;10.362;2023-04-29T08:04:27;14.00;93.40
18694;DHT22;9477;51.414;10.362;2023-04-29T08:06:31;14.10;93.80
18694;DHT22;9477;51.414;10.362;2023-04-29T08:08:33;14.00;93.80
18694;DHT22;9477;51.414;10.362;2023-04-29T08:10:37;14.00;93.70
18694;DHT22;9477;51.414;10.362;2023-04-29T08:12:44;14.30;94.00
18694;DHT22;9477;51.414;10.362;2023-04-29T08:14:51;14.30;93.60
18694;DHT22;9477;51.414;10.362;2023-04-29T08:16:54;14.60;93.60
18694;DHT22;9477;51.414;10.362;2023-04-29T08:18:57;14.40;93.00
18694;DHT22;9477;51.414;10.362;2023-04-29T08:21:12;14.00;93.40
18694;DHT22;9477;51.414;10.362;2023-04-29T08:23:15;14.20;93.80
18694;DHT22;9477;51.414;10.362;2023-04-29T08:25:18;14.30;93.90
18694;DHT22;9477;51.414;10.362;2023-04-29T08:27:21;14.50;93.80
18694;DHT22;9477;51.414;10.362;2023-04-29T08:29:23;14.70;93.60
18694;DHT22;9477;51.414;10.362;2023-04-29T08:31:28;14.40;93.20
18694;DHT22;9477;51.414;10.362;2023-04-29T08:33:31;14.40;93.10
18694;DHT22;9477;51.414;10.362;2023-04-29T08:35:36;14.20;92.90
18694;DHT22;9477;51.414;10.362;2023-04-29T08:37:39;14.10;93.00
18694;DHT22;9477;51.414;10.362;2023-04-29T08:39:43;14.20;93.30
18694;DHT22;9477;51.414;10.362;2023-04-29T08:41:48;14.30;93.30
18694;DHT22;9477;51.414;10.362;2023-04-29T08:43:52;14.50;93.60
18694;DHT22;9477;51.414;10.362;2023-04-29T08:45:57;14.40;93.40
18694;DHT22;9477;51.414;10.362;2023-04-29T08:48:03;14.40;93.30
18694;DHT22;9477;51.414;10.362;2023-04-29T08:50:08;14.20;93.20
18694;DHT22;9477;51.414;10.362;2023-04-29T08:52:11;14.40;93.40
18694;DHT22;9477;51.414;10.362;2023-04-29T08:54:14;14.30;93.40
18694;DHT22;9477;51.414;10.362;2023-04-29T08:56:17;14.50;93.30
18694;DHT22;9477;51.414;10.362;2023-04-29T08:58:24;14.20;92.80
18694;DHT22;9477;51.414;10.362;2023-04-29T09:00:31;13.70;92.90
18694;DHT22;9477;51.414;10.362;2023-04-29T09:02:38;14.00;93.50
18694;DHT22;9477;51.414;10.362;2023-04-29T09:05:03;13.50;93.30
18694;DHT22;9477;51.414;10.362;2023-04-29T09:07:07;13.90;93.80
18694;DHT22;9477;51.414;10.362;2023-04-29T09:09:12;13.90;93.50
18694;DHT22;9477;51.414;10.362;2023-04-29T09:11:16;13.90;93.20
18694;DHT22;9477;51.414;10.362;2023-04-29T09:13:23;14.10;93.60
18694;DHT22;9477;51.414;10.362;2023-04-29T09:15:26;13.50;93.40
18694;DHT22;9477;51.414;10.362;2023-04-29T09:17:43;13.60;93.60
18694;DHT22;9477;51.414;10.362;2023-04-29T09:19:46;13.70;93.70
18694;DHT22;9477;51.414;10.362;2023-04-29T09:21:54;13.80;93.90
18694;DHT22;9477;51.414;10.362;2023-04-29T09:23:58;13.60;93.80
18694;DHT22;9477;51.414;10.362;2023-04-29T09:26:01;13.90;93.90
18694;DHT22;9477;51.414;10.362;2023-04-29T09:28:14;13.60;93.40
18694;DHT22;9477;51.414;10.362;2023-04-29T09:30:17;13.00;93.40
18694;DHT22;9477;51.414;10.362;2023-04-29T09:32:22;13.60;93.90
18694;DHT22;9477;51.414;10.362;2023-04-29T09:34:31;13.70;93.80
18694;DHT22;9477;51.414;10.362;2023-04-29T09:36:43;14.00;93.90
18694;DHT22;9477;51.414;10.362;2023-04-29T09:38:53;13.80;93.40
18694;DHT22;9477;51.414;10.362;2023-04-29T09:40:57;13.70;93.10
18694;DHT22;9477;51.414;10.362;2023-04-29T09:43:03;13.80;93.40
18694;DHT22;9477;51.414;10.362;2023-04-29T09:45:31;13.50;93.40
18694;DHT22;9477;51.414;10.362;2023-04-29T09:47:34;13.90;93.80
18694;DHT22;9477;51.414;10.362;2023-04-29T09:49:38;14.00;93.40
18694;DHT22;9477;51.414;10.362;2023-04-29T09:51:51;14.10;93.40
18694;DHT22;9477;51.414;10.362;2023-04-29T09:53:56;14.50;94.00
18694;DHT22;9477;51.414;10.362;2023-04-29T09:56:00;14.50;93.00
18694;DHT22;9477;51.414;10.362;2023-04-29T09:58:04;14.10;92.70
18694;DHT22;9477;51.414;10.362;2023-04-29T10:00:07;14.50;93.40
18694;DHT22;9477;51.414;10.362;2023-04-29T10:02:13;14.20;92.70
18694;DHT22;9477;51.414;10.362;2023-04-29T10:04:19;14.10;92.50
18694;DHT22;9477;51.414;10.362;2023-04-29T10:06:23;14.60;92.70
18694;DHT22;9477;51.414;10.362;2023-04-29T10:08:28;14.70;92.70
18694;DHT22;9477;51.414;10.362;2023-04-29T10:10:32;14.70;91.80
18694;DHT22;9477;51.414;10.362;2023-04-29T10:12:35;14.50;91.90
18694;DHT22;9477;51.414;10.362;2023-04-29T10:14:43;14.40;92.00
18694;DHT22;9477;51.414;10.362;2023-04-29T10:16:47;14.20;91.70
18694;DHT22;9477;51.414;10.362;2023-04-29T10:18:53;14.30;92.10
18694;DHT22;9477;51.414;10.362;2023-04-29T10:20:58;14.80;92.20
18694;DHT22;9477;51.414;10.362;2023-04-29T10:23:03;14.60;91.20
18694;DHT22;9477;51.414;10.362;2023-04-29T10:25:09;14.70;91.30
18694;DHT22;9477;51.414;10.362;2023-04-29T10:27:14;14.90;91.70
18694;DHT22;9477;51.414;10.362;2023-04-29T10:29:18;14.70;91.20
18694;DHT22;9477;51.414;10.362;2023-04-29T10:31:25;14.80;91.30
18694;DHT22;9477;51.414;10.362;2023-04-29T10:33:30;15.00;91.50
18694;DHT22;9477;51.414;10.362;2023-04-29T10:35:34;14.50;90.60
18694;DHT22;9477;51.414;10.362;2023-04-29T10:37:53;14.60;91.20
18694;DHT22;9477;51.414;10.362;2023-04-29T10:40:03;14.60;91.00
18694;DHT22;9477;51.414;10.362;2023-04-29T10:42:20;14.10;90.50
18694;DHT22;9477;51.414;10.362;2023-04-29T10:44:27;13.90;91.20
18694;DHT22;9477;51.414;10.362;2023-04-29T10:46:30;14.10;91.40
18694;DHT22;9477;51.414;10.362;2023-04-29T10:48:33;14.10;91.10
18694;DHT22;9477;51.414;10.362;2023-04-29T10:53:00;14.00;90.80
18694;DHT22;9477;51.414;10.362;2023-04-29T10:55:04;14.00;90.90
18694;DHT22;9477;51.414;10.362;2023-04-29T10:57:20;14.10;91.00
18694;DHT22;9477;51.414;10.362;2023-04-29T10:59:44;14.20;90.50
18694;DHT22;9477;51.414;10.362;2023-04-29T11:01:48;14.70;90.90
18694;DHT22;9477;51.414;10.362;2023-04-29T11:03:53;14.70;90.00
18694;DHT22;9477;51.414;10.362;2023-04-29T11:06:07;15.00;90.00
18694;DHT22;9477;51.414;10.362;2023-04-29T11:08:10;15.50;89.80
18694;DHT22;9477;51.414;10.362;2023-04-29T11:10:13;15.70;88.90
18694;DHT22;9477;51.414;10.362;2023-04-29T11:12:20;15.40;86.70
18694;DHT22;9477;51.414;10.362;2023-04-29T11:14:24;15.70;88.10
18694;DHT22;9477;51.414;10.362;2023-04-29T11:16:28;15.70;87.20
18694;DHT22;9477;51.414;10.362;2023-04-29T11:18:31;15.80;87.00
18694;DHT22;9477;51.414;10.362;2023-04-29T11:21:10;16.10;87.60
18694;DHT22;9477;51.414;10.362;2023-04-29T11:23:16;15.80;86.50
18694;DHT22;9477;51.414;10.362;2023-04-29T11:25:20;15.60;85.80
18694;DHT22;9477;51.414;10.362;2023-04-29T11:27:30;15.60;85.40
18694;DHT22;9477;51.414;10.362;2023-04-29T11:29:34;15.20;85.60
18694;DHT22;9477;51.414;10.362;2023-04-29T11:31:36;15.50;86.70
18694;DHT22;9477;51.414;10.362;2023-04-29T11:33:40;15.50;86.10
18694;DHT22;9477;51.414;10.362;2023-04-29T11:35:43;15.50;86.30
18694;DHT22;9477;51.414;10.362;2023-04-29T11:37:46;15.70;86.20
18694;DHT22;9477;51.414;10.362;2023-04-29T11:39:49;15.70;85.70
18694;DHT22;9477;51.414;10.362;2023-04-29T11:42:02;15.80;85.20
18694;DHT22;9477;51.414;10.362;2023-04-29T11:44:06;16.00;85.50
18694;DHT22;9477;51.414;10.362;2023-04-29T11:46:11;15.90;84.20
18694;DHT22;9477;51.414;10.362;2023-04-29T11:48:17;15.50;84.00
18694;DHT22;9477;51.414;10.362;2023-04-29T11:50:20;15.50;84.90
18694;DHT22;9477;51.414;10.362;2023-04-29T11:52:24;15.60;85.40
18694;DHT22;9477;51.414;10.362;2023-04-29T11:54:27;15.90;85.40
18694;DHT22;9477;51.414;10.362;2023-04-29T11:56:30;15.80;84.00
18694;DHT22;9477;51.414;10.362;2023-04-29T11:58:33;15.70;84.30
18694;DHT22;9477;51.414;10.362;2023-04-29T12:00:37;14.90;83.70
18694;DHT22;9477;51.414;10.362;2023-04-29T12:02:43;15.50;86.10
18694;DHT22;9477;51.414;10.362;2023-04-29T12:04:47;15.30;84.70
18694;DHT22;9477;51.414;10.362;2023-04-29T12:06:50;15.40;85.30
18694;DHT22;9477;51.414;10.362;2023-04-29T12:08:53;15.50;84.90
18694;DHT22;9477;51.414;10.362;2023-04-29T12:10:57;15.50;84.10
18694;DHT22;9477;51.414;10.362;2023-04-29T12:13:00;15.50;84.90
18694;DHT22;9477;51.414;10.362;2023-04-29T12:15:04;15.50;85.00
18694;DHT22;9477;51.414;10.362;2023-04-29T12:17:09;15.10;84.00
18694;DHT22;9477;51.414;10.362;2023-04-29T12:19:12;15.80;85.40
18694;DHT22;9477;51.414;10.362;2023-04-29T12:21:15;16.00;85.00
18694;DHT22;9477;51.414;10.362;2023-04-29T12:23:19;15.50;82.80
18694;DHT22;9477;51.414;10.362;2023-04-29T12:25:24;15.50;83.90
18694;DHT22;9477;51.414;10.362;2023-04-29T12:27:28;15.70;84.70
18694;DHT22;9477;51.414;10.362;2023-04-29T12:29:31;15.80;84.00
18694;DHT22;9477;51.414;10.362;2023-04-29T12:31:34;16.20;84.70
18694;DHT22;9477;51.414;10.362;2023-04-29T12:33:41;16.20;84.30
18694;DHT22;9477;51.414;10.362;2023-04-29T12:35:44;15.50;81.60
18694;DHT22;9477;51.414;10.362;2023-04-29T12:37:48;16.00;83.70
18694;DHT22;9477;51.414;10.362;2023-04-29T12:39:53;16.10;83.40
18694;DHT22;9477;51.414;10.362;2023-04-29T12:41:57;16.00;82.70
18694;DHT22;9477;51.414;10.362;2023-04-29T12:44:00;16.30;82.90
18694;DHT22;9477;51.414;10.362;2023-04-29T12:46:05;16.00;81.60
18694;DHT22;9477;51.414;10.362;2023-04-29T12:48:10;15.90;81.60
18694;DHT22;9477;51.414;10.362;2023-04-29T12:50:32;16.10;81.30
18694;DHT22;9477;51.414;10.362;2023-04-29T12:52:35;16.30;81.00
18694;DHT22;9477;51.414;10.362;2023-04-29T12:54:39;16.40;81.00
18694;DHT22;9477;51.414;10.362;2023-04-29T12:56:44;16.40;80.70
18694;DHT22;9477;51.414;10.362;2023-04-29T12:58:49;16.40;80.30
18694;DHT22;9477;51.414;10.362;2023-04-29T13:00:52;16.20;79.60
18694;DHT22;9477;51.414;10.362;2023-04-29T13:02:55;16.00;80.50
18694;DHT22;9477;51.414;10.362;2023-04-29T13:04:58;16.00;81.70
18694;DHT22;9477;51.414;10.362;2023-04-29T13:07:03;15.30;80.70
18694;DHT22;9477;51.414;10.362;2023-04-29T13:09:07;15.80;82.10